Time;durP1;ratioP1;P1;durP2;ratioP2;P2;SDS_P1;SDS_P2;PMS_P1;PMS_P2;Temp;Humidity;BMP_temperature;BMP_pressure;BME280_temperature;BME280_humidity;BME280_pressure;Samples;Min_cycle;Max_cycle;Signal;HPM_P1;HPM_P2
2023/11/10 00:03:21;;;;;;;11.80;7.50;;;;;;;6.08;79.02;98940.71;220102;1257;140179;-70
2023/11/10 00:08:24;;;;;;;14.30;8.50;;;;;;;6.06;79.32;98935.31;219437;1256;141034;-69
2023/11/10 00:13:26;;;;;;;19.30;9.90;;;;;;;6.01;79.19;98934.48;220352;1256;140747;-69
2023/11/10 00:18:29;;;;;;;19.80;9.00;;;;;;;5.98;79.22;98933.76;220178;1257;139300;-70
2023/11/10 00:23:32;;;;;;;17.60;9.70;;;;;;;5.94;79.17;98930.67;220326;1257;141060;-70
2023/11/10 00:28:37;;;;;;;14.40;7.10;;;;;;;5.89;79.38;98934.80;220028;1258;140109;-68
2023/11/10 00:33:40;;;;;;;15.30;10.00;;;;;;;5.84;79.15;98923.86;220036;1257;140219;-69
2023/11/10 00:38:44;;;;;;;14.60;9.10;;;;;;;5.78;79.37;98924.16;219999;1257;140269;-68
2023/11/10 00:43:49;;;;;;;17.40;10.20;;;;;;;5.73;79.52;98917.83;218379;1260;140464;-69
2023/11/10 00:48:53;;;;;;;15.90;9.70;;;;;;;5.66;79.32;98914.00;219570;1257;142265;-71
2023/11/10 00:53:56;;;;;;;16.90;8.60;;;;;;;5.64;79.57;98916.11;220169;1257;142355;-68
2023/11/10 00:58:59;;;;;;;14.90;9.80;;;;;;;5.60;79.66;98908.05;220264;1257;140959;-71
2023/11/10 01:04:03;;;;;;;11.70;7.70;;;;;;;5.56;79.74;98902.48;220254;1257;139664;-68
2023/11/10 01:09:07;;;;;;;13.30;9.80;;;;;;;5.53;80.07;98896.79;219078;1256;140204;-69
2023/11/10 01:14:10;;;;;;;13.80;8.80;;;;;;;5.50;80.02;98891.88;220029;1257;139544;-70
2023/11/10 01:19:14;;;;;;;18.10;9.90;;;;;;;5.48;79.98;98881.25;219980;1257;140108;-72
2023/11/10 01:24:17;;;;;;;26.50;12.80;;;;;;;5.46;80.25;98872.90;220182;1256;141113;-69
2023/11/10 01:29:20;;;;;;;15.50;10.00;;;;;;;5.43;80.45;98864.20;220499;1257;140226;-67
2023/11/10 01:34:22;;;;;;;16.90;9.50;;;;;;;5.47;80.37;98861.39;219998;1257;141147;-69
2023/11/10 01:39:25;;;;;;;19.90;12.10;;;;;;;5.49;80.66;98863.55;218051;1257;141435;-68
2023/11/10 01:44:29;;;;;;;15.00;12.10;;;;;;;5.51;81.00;98873.91;220169;1257;140924;-69
2023/11/10 01:49:33;;;;;;;13.70;9.80;;;;;;;5.55;81.06;98877.56;220100;1257;141292;-69
2023/11/10 01:54:36;;;;;;;17.80;9.30;;;;;;;5.58;80.78;98864.23;220120;1255;140800;-69
2023/11/10 01:59:41;;;;;;;15.00;10.20;;;;;;;5.61;80.73;98858.34;220273;1256;139876;-68
2023/11/10 02:04:44;;;;;;;11.40;8.20;;;;;;;5.62;80.88;98854.17;219354;1257;140705;-69
2023/11/10 02:09:46;;;;;;;18.80;9.60;;;;;;;5.63;81.01;98837.13;220196;1257;140308;-69
2023/11/10 02:14:49;;;;;;;17.50;10.10;;;;;;;5.65;81.18;98831.36;220025;1257;139820;-70
2023/11/10 02:19:52;;;;;;;19.70;10.00;;;;;;;5.69;80.99;98829.35;220292;1255;140363;-71
2023/11/10 02:24:57;;;;;;;13.70;8.30;;;;;;;5.73;81.24;98834.07;220394;1257;141020;-71
2023/11/10 02:30:00;;;;;;;16.30;11.20;;;;;;;5.76;81.55;98822.67;220143;1257;141209;-70
2023/11/10 02:35:04;;;;;;;15.60;8.60;;;;;;;5.81;81.28;98815.52;220356;1257;139909;-71
2023/11/10 02:40:09;;;;;;;11.90;8.10;;;;;;;5.84;81.36;98809.29;219265;1258;140364;-73
2023/11/10 02:45:13;;;;;;;12.80;7.60;;;;;;;5.88;81.47;98805.11;219328;1257;140328;-73
2023/11/10 02:50:16;;;;;;;15.30;8.20;;;;;;;5.89;81.59;98802.05;220354;1257;140264;-72
2023/11/10 02:55:23;;;;;;;11.50;7.60;;;;;;;5.92;81.70;98803.33;218658;1256;142615;-73
2023/11/10 03:00:26;;;;;;;14.60;8.00;;;;;;;5.92;81.55;98793.20;218900;1257;140159;-74
2023/11/10 03:05:30;;;;;;;13.50;9.00;;;;;;;5.93;81.78;98796.35;219916;1257;139921;-72
2023/11/10 03:10:35;;;;;;;14.10;8.90;;;;;;;5.99;81.88;98800.88;217199;1257;141816;-73
2023/11/10 03:15:37;;;;;;;9.50;8.20;;;;;;;6.05;81.72;98791.13;220156;1257;140259;-73
2023/11/10 03:20:40;;;;;;;8.60;5.80;;;;;;;6.11;81.85;98786.56;220283;1257;140529;-70
2023/11/10 03:25:43;;;;;;;11.90;7.00;;;;;;;6.16;82.04;98783.76;219447;1258;141612;-70
2023/11/10 03:30:46;;;;;;;7.40;5.40;;;;;;;6.23;82.05;98787.73;220169;1256;141326;-69
2023/11/10 03:35:49;;;;;;;9.30;5.90;;;;;;;6.28;82.28;98779.91;220340;1257;140815;-68
2023/11/10 03:40:53;;;;;;;12.30;6.10;;;;;;;6.34;82.48;98781.06;219479;1258;141390;-70
2023/11/10 03:45:56;;;;;;;14.40;6.90;;;;;;;6.40;82.51;98773.76;219296;1256;140570;-70
2023/11/10 03:51:00;;;;;;;22.30;8.40;;;;;;;6.47;82.68;98767.79;220077;1256;140503;-71
2023/11/10 03:56:04;;;;;;;6.00;5.40;;;;;;;6.52;82.66;98769.28;219294;1255;140682;-69
2023/11/10 04:01:10;;;;;;;13.00;7.60;;;;;;;6.56;82.17;98764.05;219424;1257;139345;-71
2023/11/10 04:06:15;;;;;;;8.50;6.10;;;;;;;6.54;82.28;98756.67;220306;1257;140149;-72
2023/11/10 04:11:17;;;;;;;8.80;6.40;;;;;;;6.51;82.41;98746.33;220329;1258;141383;-69
2023/11/10 04:16:22;;;;;;;8.80;6.70;;;;;;;6.52;82.44;98748.40;219938;1257;139579;-72
2023/11/10 04:21:26;;;;;;;9.40;5.70;;;;;;;6.52;82.29;98738.41;219980;1257;139677;-70
2023/11/10 04:26:29;;;;;;;9.60;5.70;;;;;;;6.51;82.39;98730.06;220158;1258;139994;-71
2023/11/10 04:31:32;;;;;;;7.60;5.20;;;;;;;6.48;82.41;98734.86;220301;1256;140684;-72
2023/11/10 04:36:39;;;;;;;8.50;6.00;;;;;;;6.45;82.66;98736.50;220160;1258;139638;-71
2023/11/10 04:41:42;;;;;;;11.40;7.70;;;;;;;6.42;82.33;98731.64;220243;1257;139714;-72
2023/11/10 04:46:44;;;;;;;11.30;7.10;;;;;;;6.39;82.29;98725.77;220310;1256;139963;-71
2023/11/10 04:51:48;;;;;;;8.30;6.40;;;;;;;6.38;82.19;98725.38;220221;1257;139982;-72
2023/11/10 04:56:50;;;;;;;10.30;6.70;;;;;;;6.34;82.22;98717.96;219933;1257;141232;-70
2023/11/10 05:01:54;;;;;;;11.30;8.00;;;;;;;6.30;82.77;98706.87;220113;1256;140739;-71
2023/11/10 05:06:56;;;;;;;12.00;7.50;;;;;;;6.28;82.56;98705.12;219478;1257;159964;-71
2023/11/10 05:11:59;;;;;;;12.70;7.40;;;;;;;6.28;82.84;98706.83;219622;1257;139605;-71
2023/11/10 05:17:01;;;;;;;12.40;6.00;;;;;;;6.29;82.68;98710.06;217622;1257;139666;-71
2023/11/10 05:22:04;;;;;;;12.40;7.30;;;;;;;6.28;82.92;98707.03;220267;1256;139957;-71
2023/11/10 05:27:10;;;;;;;9.50;6.60;;;;;;;6.26;83.10;98703.77;219614;1257;140600;-72
2023/11/10 05:32:14;;;;;;;9.90;6.20;;;;;;;6.25;83.15;98694.95;220131;1256;140333;-72
2023/11/10 05:37:20;;;;;;;11.70;7.10;;;;;;;6.22;82.99;98698.65;220007;1257;140283;-71
2023/11/10 05:42:23;;;;;;;8.20;6.40;;;;;;;6.19;82.93;98711.29;220023;1257;140229;-71
2023/11/10 05:47:27;;;;;;;9.80;6.70;;;;;;;6.14;82.73;98715.77;218671;1256;140314;-71
2023/11/10 05:52:31;;;;;;;13.30;7.90;;;;;;;6.12;83.05;98721.60;220247;1257;139857;-72
2023/11/10 05:57:36;;;;;;;9.60;7.70;;;;;;;6.08;83.12;98725.76;220126;1260;140149;-71
2023/11/10 06:02:39;;;;;;;6.90;5.40;;;;;;;6.05;83.12;98727.55;220171;1256;139762;-71
2023/11/10 06:07:45;;;;;;;9.90;5.90;;;;;;;6.02;83.15;98722.35;220011;1257;140596;-71
2023/11/10 06:12:50;;;;;;;9.80;6.90;;;;;;;5.98;83.39;98718.48;220021;1258;141427;-71
2023/11/10 06:17:53;;;;;;;13.70;8.00;;;;;;;5.97;83.48;98727.67;220096;1258;139714;-71
2023/11/10 06:22:56;;;;;;;11.50;7.60;;;;;;;6.03;83.74;98731.73;220338;1258;140492;-71
2023/11/10 06:28:00;;;;;;;9.20;6.80;;;;;;;6.06;83.74;98736.08;220320;1256;141234;-71
2023/11/10 06:33:04;;;;;;;13.90;8.20;;;;;;;6.10;83.92;98737.98;220481;1256;140314;-71
2023/11/10 06:38:08;;;;;;;9.70;6.00;;;;;;;6.15;84.08;98740.55;218527;1256;140482;-71
2023/11/10 06:43:10;;;;;;;9.30;6.00;;;;;;;6.23;84.14;98746.67;220280;1255;139700;-70
2023/11/10 06:48:15;;;;;;;11.80;6.70;;;;;;;6.28;84.42;98748.91;220226;1257;139845;-71
2023/11/10 06:53:18;;;;;;;8.00;5.60;;;;;;;6.34;84.45;98749.27;220289;1256;140014;-71
2023/11/10 06:58:22;;;;;;;8.20;7.00;;;;;;;6.43;84.35;98748.01;218714;1257;139425;-70
2023/11/10 07:03:24;;;;;;;8.60;6.40;;;;;;;6.50;84.37;98754.25;220259;1256;141214;-71
2023/11/10 07:08:27;;;;;;;8.50;6.20;;;;;;;6.58;84.54;98757.81;220096;1257;140573;-71
2023/11/10 07:13:30;;;;;;;8.20;6.20;;;;;;;6.67;84.59;98756.68;218648;1257;141024;-72
2023/11/10 07:18:32;;;;;;;6.90;6.20;;;;;;;6.76;84.25;98754.69;218314;1259;139511;-72
2023/11/10 07:23:35;;;;;;;7.50;6.10;;;;;;;6.87;84.71;98751.80;218941;1256;140120;-68
2023/11/10 07:28:37;;;;;;;10.00;7.00;;;;;;;6.94;84.58;98747.38;218657;1258;139463;-70
2023/11/10 07:33:41;;;;;;;13.50;7.30;;;;;;;7.02;84.61;98745.95;220071;1256;140222;-72
2023/11/10 07:38:44;;;;;;;5.90;5.20;;;;;;;7.14;84.40;98750.88;217817;1259;141180;-70
2023/11/10 07:43:47;;;;;;;15.80;6.80;;;;;;;7.19;84.49;98744.73;220098;1257;140086;-71
2023/11/10 07:48:50;;;;;;;9.40;7.70;;;;;;;7.22;84.29;98746.64;219779;1257;140156;-71
2023/11/10 07:53:54;;;;;;;10.70;6.00;;;;;;;7.29;84.30;98742.31;220350;1257;140012;-72
2023/11/10 07:58:57;;;;;;;10.00;6.20;;;;;;;7.50;84.46;98739.60;220353;1256;139689;-71
2023/11/10 08:04:01;;;;;;;10.60;6.60;;;;;;;7.73;84.53;98737.25;219554;1258;140249;-68
2023/11/10 08:09:04;;;;;;;9.70;6.80;;;;;;;7.97;84.52;98739.58;220244;1257;141148;-72
2023/11/10 08:14:07;;;;;;;10.40;7.40;;;;;;;8.13;84.37;98741.48;220393;1259;140035;-72
2023/11/10 08:19:10;;;;;;;7.40;6.60;;;;;;;8.23;84.01;98739.55;220325;1257;139293;-72
2023/11/10 08:24:13;;;;;;;8.90;6.90;;;;;;;8.39;83.88;98746.55;220286;1256;139660;-71
2023/11/10 08:29:17;;;;;;;11.60;7.90;;;;;;;8.55;83.54;98736.95;220375;1257;140100;-70
2023/11/10 08:34:22;;;;;;;10.30;7.80;;;;;;;8.72;83.32;98724.85;220228;1257;141516;-70
2023/11/10 08:39:26;;;;;;;17.70;7.80;;;;;;;8.95;83.16;98725.59;220207;1257;150993;-71
2023/11/10 08:44:28;;;;;;;9.70;6.70;;;;;;;9.11;82.87;98726.36;220222;1256;139827;-71
2023/11/10 08:49:31;;;;;;;8.40;6.90;;;;;;;9.26;82.66;98723.68;219583;1257;140607;-72
2023/11/10 08:54:38;;;;;;;9.60;7.10;;;;;;;9.38;82.40;98721.73;219290;1256;139651;-71
2023/11/10 08:59:43;;;;;;;8.40;6.80;;;;;;;9.43;81.97;98720.84;220328;1257;140035;-71
2023/11/10 09:04:48;;;;;;;8.50;7.00;;;;;;;9.56;82.25;98720.66;220273;1259;139730;-70
2023/11/10 09:09:52;;;;;;;7.50;5.40;;;;;;;9.74;81.94;98721.11;220191;1257;139960;-72
2023/11/10 09:14:54;;;;;;;8.00;5.80;;;;;;;9.83;81.67;98714.72;219668;1257;139495;-71
2023/11/10 09:19:57;;;;;;;8.20;7.40;;;;;;;9.96;81.69;98716.31;219481;1259;139498;-72
2023/11/10 09:25:00;;;;;;;7.90;6.10;;;;;;;10.04;81.38;98722.77;220335;1257;141498;-72
2023/11/10 09:30:04;;;;;;;7.00;5.90;;;;;;;10.07;81.04;98725.82;219163;1257;140559;-72
2023/11/10 09:35:07;;;;;;;6.70;5.90;;;;;;;10.08;80.80;98726.84;219563;1257;140461;-71
2023/11/10 09:40:11;;;;;;;7.00;5.90;;;;;;;10.22;80.99;98717.00;218113;1257;140591;-72
2023/11/10 09:45:16;;;;;;;5.70;5.00;;;;;;;10.34;80.87;98720.34;220109;1259;139510;-72
2023/11/10 09:50:25;;;;;;;7.10;6.20;;;;;;;10.34;80.34;98724.01;217187;1258;140425;-72
2023/11/10 09:55:29;;;;;;;9.90;6.30;;;;;;;10.26;80.36;98723.38;220001;1259;140343;-73
2023/11/10 10:00:55;;;;;;;9.20;5.80;;;;;;;10.22;80.05;98719.36;220245;1257;140018;-73
2023/11/10 10:06:02;;;;;;;5.70;5.10;;;;;;;10.27;80.33;98715.48;220286;1257;140397;-72
2023/11/10 10:11:05;;;;;;;10.10;5.10;;;;;;;10.37;80.26;98718.91;220511;1257;140272;-72
2023/11/10 10:16:10;;;;;;;7.70;4.90;;;;;;;10.51;80.12;98709.91;220130;1257;140963;-72
2023/11/10 10:21:13;;;;;;;5.40;4.80;;;;;;;10.69;80.37;98695.45;220033;1259;140114;-72
2023/11/10 10:26:15;;;;;;;7.60;5.10;;;;;;;10.87;80.07;98689.23;220308;1259;140451;-69
2023/11/10 10:31:18;;;;;;;8.90;5.20;;;;;;;10.99;79.50;98684.84;220273;1258;140078;-72
2023/11/10 10:36:22;;;;;;;5.80;5.20;;;;;;;11.01;79.04;98686.70;220367;1258;140385;-72
2023/11/10 10:41:29;;;;;;;6.80;5.00;;;;;;;11.04;78.88;98683.61;220340;1257;142333;-72
2023/11/10 10:46:39;;;;;;;11.10;7.10;;;;;;;11.07;78.73;98684.15;220254;1257;142559;-72
2023/11/10 10:51:43;;;;;;;7.80;5.60;;;;;;;11.18;78.91;98682.80;220360;1257;140776;-72
2023/11/10 10:56:49;;;;;;;5.00;4.50;;;;;;;11.23;78.28;98677.95;219422;1257;141773;-72
2023/11/10 11:01:54;;;;;;;9.90;4.60;;;;;;;11.33;78.01;98672.18;219629;1257;140528;-72
2023/11/10 11:07:11;;;;;;;9.20;5.80;;;;;;;11.46;78.16;98666.34;217856;1259;140374;-71
2023/11/10 11:12:39;;;;;;;5.10;4.50;;;;;;;11.79;78.05;98657.48;218681;1257;140665;-71
2023/11/10 11:18:06;;;;;;;5.30;4.20;;;;;;;11.80;77.12;98646.29;220354;1256;141050;-72
2023/11/10 11:23:11;;;;;;;;;;;;;;;11.78;76.89;98647.95;219165;1257;141467;-72
2023/11/10 11:28:25;;;;;;;14.60;5.60;;;;;;;11.80;76.53;98640.73;219455;1257;126836;-72
2023/11/10 11:33:30;;;;;;;9.40;5.70;;;;;;;11.77;76.24;98637.36;218644;1262;140813;-70
2023/11/10 11:38:36;;;;;;;6.10;4.30;;;;;;;11.82;76.03;98641.42;220103;1260;140680;-73
2023/11/10 11:43:49;;;;;;;6.70;5.50;;;;;;;11.87;75.85;98641.05;220116;1262;141096;-72
2023/11/10 11:48:52;;;;;;;8.20;5.00;;;;;;;11.86;75.52;98637.10;220221;1257;141233;-72
2023/11/10 11:53:56;;;;;;;8.90;5.30;;;;;;;11.82;75.25;98630.06;218992;1258;140064;-73
2023/11/10 11:58:59;;;;;;;8.70;5.00;;;;;;;11.74;74.84;98636.13;220469;1258;140356;-72
2023/11/10 12:04:03;;;;;;;9.50;5.60;;;;;;;11.65;74.72;98632.44;219833;1257;140124;-71
2023/11/10 12:09:06;;;;;;;6.50;4.80;;;;;;;11.63;74.73;98634.90;220449;1255;140682;-72
2023/11/10 12:14:09;;;;;;;4.20;3.80;;;;;;;11.72;74.99;98636.86;220524;1257;142726;-72
2023/11/10 12:19:15;;;;;;;6.40;4.50;;;;;;;11.85;74.58;98631.61;220491;1256;140154;-72
2023/11/10 12:24:30;;;;;;;5.50;4.20;;;;;;;11.86;74.15;98625.78;220390;1257;140357;-72
2023/11/10 12:29:33;;;;;;;6.80;3.70;;;;;;;11.80;73.73;98622.79;220496;1257;141807;-74
2023/11/10 12:34:36;;;;;;;4.80;3.90;;;;;;;11.75;73.66;98616.80;220570;1256;140903;-70
2023/11/10 12:39:42;;;;;;;3.80;3.30;;;;;;;11.70;73.38;98615.02;220350;1256;140048;-73
2023/11/10 12:44:56;;;;;;;5.50;3.80;;;;;;;11.65;73.32;98618.66;218428;1257;139956;-71
2023/11/10 12:50:02;;;;;;;7.90;4.20;;;;;;;11.55;72.96;98622.16;220405;1257;139850;-72
2023/11/10 12:55:05;;;;;;;4.00;3.60;;;;;;;11.42;73.15;98621.45;220390;1257;140906;-72
2023/11/10 13:00:12;;;;;;;4.30;3.40;;;;;;;11.37;73.05;98620.27;220425;1257;140497;-73
2023/11/10 13:05:15;;;;;;;4.20;3.30;;;;;;;11.32;73.00;98620.70;220507;1258;140129;-74
2023/11/10 13:10:18;;;;;;;4.40;3.60;;;;;;;11.30;73.18;98616.17;217671;1260;141025;-72
2023/11/10 13:15:21;;;;;;;7.60;4.50;;;;;;;11.29;73.19;98615.44;219596;1256;404044;-72
2023/11/10 13:20:23;;;;;;;7.80;4.00;;;;;;;11.29;73.05;98614.70;219826;1255;140981;-71
2023/11/10 13:25:31;;;;;;;3.80;3.40;;;;;;;11.34;72.94;98620.27;220396;1257;140611;-72
2023/11/10 13:30:34;;;;;;;7.30;4.60;;;;;;;11.39;72.84;98618.62;218451;1256;139964;-73
2023/11/10 13:35:37;;;;;;;5.30;4.40;;;;;;;11.32;72.76;98610.09;217902;1257;139809;-72
2023/11/10 13:40:41;;;;;;;4.30;3.60;;;;;;;11.23;72.71;98614.95;219360;1257;140778;-71
2023/11/10 13:45:44;;;;;;;5.00;4.40;;;;;;;11.16;72.77;98610.23;218724;1257;140328;-71
2023/11/10 13:50:48;;;;;;;4.00;2.60;;;;;;;11.11;72.88;98603.99;220168;1256;140162;-69
2023/11/10 13:55:52;;;;;;;3.60;3.30;;;;;;;11.02;72.70;98607.23;220462;1256;140784;-72
2023/11/10 14:00:55;;;;;;;4.50;4.10;;;;;;;10.92;72.71;98615.02;220558;1257;141259;-72
2023/11/10 14:05:58;;;;;;;7.60;4.20;;;;;;;10.87;72.73;98621.88;220509;1257;142161;-72
2023/11/10 14:11:02;;;;;;;6.80;3.70;;;;;;;10.82;72.91;98629.11;220523;1257;140758;-70
2023/11/10 14:16:09;;;;;;;5.00;3.80;;;;;;;10.75;72.89;98634.05;220367;1256;141905;-70
2023/11/10 14:21:14;;;;;;;5.40;3.80;;;;;;;10.67;73.07;98630.80;219976;1257;140447;-70
2023/11/10 14:26:17;;;;;;;7.90;3.60;;;;;;;10.64;72.92;98633.61;220092;1256;141154;-71
2023/11/10 14:31:20;;;;;;;5.00;4.50;;;;;;;10.58;73.10;98629.21;220080;1257;140417;-72
2023/11/10 14:36:24;;;;;;;5.40;3.70;;;;;;;10.49;73.13;98626.03;220509;1256;140390;-72
2023/11/10 14:41:30;;;;;;;43.40;27.90;;;;;;;10.43;73.09;98620.79;220236;1256;140367;-74
2023/11/10 14:46:37;;;;;;;26.70;18.90;;;;;;;10.42;73.34;98621.05;220360;1256;140955;-74
2023/11/10 14:52:02;;;;;;;13.20;10.70;;;;;;;10.42;73.42;98619.77;220237;1256;140692;-71
2023/11/10 14:57:06;;;;;;;7.40;5.00;;;;;;;10.41;73.38;98618.65;220202;1257;140918;-71
2023/11/10 15:02:11;;;;;;;6.70;3.60;;;;;;;10.37;73.41;98614.17;220257;1256;141423;-72
2023/11/10 15:07:15;;;;;;;5.90;4.70;;;;;;;10.34;73.54;98610.80;220324;1256;140433;-71
2023/11/10 15:12:18;;;;;;;6.40;4.30;;;;;;;10.32;73.50;98625.86;220629;1255;140539;-74
2023/11/10 15:17:21;;;;;;;8.40;6.00;;;;;;;10.23;73.41;98623.52;220274;1256;140708;-73
2023/11/10 15:22:25;;;;;;;7.40;4.90;;;;;;;10.14;73.35;98627.48;218383;1257;139787;-74
2023/11/10 15:27:28;;;;;;;8.30;4.70;;;;;;;10.02;73.34;98630.75;220022;1256;141134;-72
2023/11/10 15:32:32;;;;;;;5.40;4.30;;;;;;;9.92;73.54;98641.27;220322;1256;140965;-70
2023/11/10 15:37:42;;;;;;;11.80;6.50;;;;;;;9.84;73.67;98640.67;220252;1256;140323;-71
2023/11/10 15:42:46;;;;;;;10.30;7.60;;;;;;;9.78;73.69;98642.88;220099;1256;140284;-70
2023/11/10 15:47:49;;;;;;;10.40;7.30;;;;;;;9.74;74.07;98638.89;220384;1256;139868;-71
2023/11/10 15:52:52;;;;;;;12.40;6.40;;;;;;;9.69;74.10;98640.96;218486;1256;140401;-70
2023/11/10 15:57:56;;;;;;;11.60;6.90;;;;;;;9.62;74.36;98646.13;220131;1256;140142;-69
2023/11/10 16:02:59;;;;;;;8.90;6.60;;;;;;;9.53;74.15;98643.48;220048;1256;140356;-70
2023/11/10 16:08:05;;;;;;;9.70;7.60;;;;;;;9.44;74.27;98642.75;220202;1256;139513;-70
2023/11/10 16:13:08;;;;;;;9.90;6.90;;;;;;;9.35;74.29;98640.54;220082;1256;143212;-69
2023/11/10 16:18:13;;;;;;;9.90;7.10;;;;;;;9.23;74.34;98632.34;220276;1256;139980;-70
2023/11/10 16:23:17;;;;;;;12.20;8.30;;;;;;;9.14;74.52;98628.02;220263;1256;140225;-69
2023/11/10 16:28:22;;;;;;;19.40;12.50;;;;;;;9.10;74.83;98632.35;219903;1256;141806;-69
2023/11/10 16:33:27;;;;;;;27.80;14.60;;;;;;;9.02;74.68;98629.77;220024;1256;140053;-69
2023/11/10 16:38:36;;;;;;;26.40;13.20;;;;;;;8.95;75.03;98629.31;219944;1256;141326;-69
2023/11/10 16:43:46;;;;;;;22.20;12.90;;;;;;;8.81;74.95;98627.16;220171;1256;140440;-69
2023/11/10 16:48:52;;;;;;;18.70;10.90;;;;;;;8.68;75.24;98622.77;220431;1256;140077;-69
2023/11/10 16:53:59;;;;;;;21.90;12.40;;;;;;;8.51;75.02;98625.39;220354;1256;141898;-70
2023/11/10 16:59:37;;;;;;;23.40;13.60;;;;;;;8.32;75.50;98621.91;220035;1256;141462;-69
2023/11/10 17:04:40;;;;;;;25.40;15.00;;;;;;;8.21;75.79;98627.60;220080;1256;140514;-68
2023/11/10 17:09:42;;;;;;;25.00;14.70;;;;;;;8.10;75.98;98628.27;220085;1256;140243;-69
2023/11/10 17:14:45;;;;;;;26.00;13.30;;;;;;;8.06;76.48;98626.33;218760;1256;140433;-71
2023/11/10 17:19:51;;;;;;;18.60;11.70;;;;;;;7.97;76.37;98630.46;220219;1256;140790;-70
2023/11/10 17:24:53;;;;;;;23.00;13.20;;;;;;;7.91;76.55;98630.08;220259;1256;140660;-70
2023/11/10 17:29:57;;;;;;;30.60;17.40;;;;;;;7.86;76.66;98630.80;220355;1256;142527;-72
2023/11/10 17:35:04;;;;;;;21.20;13.10;;;;;;;7.85;77.25;98632.54;218932;1256;141224;-71
2023/11/10 17:40:09;;;;;;;61.00;28.40;;;;;;;7.85;77.45;98625.16;220373;1255;141267;-72
2023/11/10 17:45:17;;;;;;;52.00;23.10;;;;;;;7.85;77.64;98626.38;220334;1256;141000;-71
2023/11/10 17:50:22;;;;;;;41.30;19.30;;;;;;;7.90;77.77;98619.92;220003;1256;141810;-71
2023/11/10 17:55:24;;;;;;;25.90;13.60;;;;;;;7.94;78.18;98615.79;220352;1255;140189;-75
2023/11/10 18:00:27;;;;;;;19.70;11.20;;;;;;;7.99;78.28;98611.59;220161;1256;140708;-73
2023/11/10 18:05:29;;;;;;;19.40;12.40;;;;;;;8.05;78.29;98608.23;220231;1256;140603;-72
2023/11/10 18:10:31;;;;;;;22.70;13.20;;;;;;;8.10;78.31;98611.48;220286;1256;140739;-72
2023/11/10 18:15:33;;;;;;;23.50;12.40;;;;;;;8.15;78.35;98614.67;220213;1256;140934;-73
2023/11/10 18:20:34;;;;;;;17.00;11.30;;;;;;;8.12;78.19;98610.04;219238;1256;141094;-72
2023/11/10 18:25:37;;;;;;;22.10;13.60;;;;;;;8.08;78.13;98610.50;220298;1256;141771;-73
2023/11/10 18:30:39;;;;;;;20.50;14.30;;;;;;;8.05;78.25;98610.39;219608;1257;140541;-72
2023/11/10 18:35:42;;;;;;;25.90;13.00;;;;;;;8.03;78.40;98605.80;220181;1256;140748;-73
2023/11/10 18:40:44;;;;;;;19.10;12.90;;;;;;;8.01;78.25;98602.86;219979;1256;140359;-72
2023/11/10 18:45:47;;;;;;;31.70;15.30;;;;;;;7.98;78.49;98601.18;220320;1256;140910;-73
2023/11/10 18:50:49;;;;;;;21.80;14.30;;;;;;;7.92;78.14;98592.73;220156;1256;140088;-69
2023/11/10 18:55:52;;;;;;;23.70;14.70;;;;;;;7.79;78.38;98587.93;220244;1258;141126;-71
2023/11/10 19:00:54;;;;;;;24.90;15.50;;;;;;;7.69;78.41;98580.72;220269;1256;140615;-69
2023/11/10 19:05:57;;;;;;;24.80;16.00;;;;;;;7.60;78.39;98580.77;220364;1256;141650;-69
2023/11/10 19:10:59;;;;;;;25.90;15.90;;;;;;;7.55;78.39;98582.98;220374;1256;140591;-71
2023/11/10 19:16:02;;;;;;;27.30;16.00;;;;;;;7.50;78.67;98579.88;220007;1256;141389;-69
2023/11/10 19:21:05;;;;;;;28.00;15.60;;;;;;;7.46;78.61;98573.77;220211;1256;140065;-70
2023/11/10 19:26:08;;;;;;;26.20;14.40;;;;;;;7.44;78.65;98573.21;220020;1256;140427;-69
2023/11/10 19:31:10;;;;;;;23.90;13.90;;;;;;;7.43;78.69;98575.78;220233;1255;140043;-71
2023/11/10 19:36:21;;;;;;;24.40;14.80;;;;;;;7.43;79.16;98575.77;219912;1256;140466;-69
2023/11/10 19:41:24;;;;;;;31.10;17.20;;;;;;;7.42;79.16;98577.37;220201;1257;141194;-70
2023/11/10 19:46:29;;;;;;;26.30;14.30;;;;;;;7.42;79.10;98572.97;220463;1255;140648;-71
2023/11/10 19:51:32;;;;;;;22.10;15.00;;;;;;;7.45;79.38;98574.59;219608;1256;140377;-70
2023/11/10 19:56:37;;;;;;;21.90;14.60;;;;;;;7.43;79.70;98571.55;219477;1257;141660;-70
2023/11/10 20:01:40;;;;;;;20.30;14.20;;;;;;;7.42;79.66;98572.01;220040;1256;139992;-70
2023/11/10 20:06:46;;;;;;;23.60;13.60;;;;;;;7.40;79.42;98576.37;219598;1255;140068;-71
2023/11/10 20:11:49;;;;;;;25.50;14.70;;;;;;;7.32;79.72;98578.38;220396;1256;140807;-70
2023/11/10 20:16:53;;;;;;;28.70;17.90;;;;;;;7.28;79.75;98583.52;217726;1256;140117;-69
2023/11/10 20:21:56;;;;;;;24.80;15.30;;;;;;;7.26;79.74;98588.80;217533;1258;140186;-69
2023/11/10 20:26:59;;;;;;;34.10;18.30;;;;;;;7.24;79.96;98587.02;219538;1260;139944;-70
2023/11/10 20:32:02;;;;;;;31.30;17.40;;;;;;;7.26;80.23;98589.95;220470;1255;140628;-71
2023/11/10 20:37:09;;;;;;;26.60;17.70;;;;;;;7.26;80.09;98585.34;220390;1256;141966;-71
2023/11/10 20:42:12;;;;;;;35.30;19.40;;;;;;;7.27;80.20;98588.88;220401;1255;141376;-70
2023/11/10 20:47:16;;;;;;;34.20;22.50;;;;;;;7.30;80.57;98587.53;220439;1256;140055;-70
2023/11/10 20:52:19;;;;;;;38.70;22.20;;;;;;;7.32;80.42;98585.28;220306;1256;140025;-71
2023/11/10 20:57:23;;;;;;;32.40;21.10;;;;;;;7.31;80.65;98574.45;220237;1257;140081;-71
2023/11/10 21:02:26;;;;;;;40.90;24.00;;;;;;;7.23;80.52;98570.20;220154;1257;141154;-70
2023/11/10 21:07:36;;;;;;;;;;;;;;;7.20;80.87;98567.17;220310;1260;141196;-71
2023/11/10 21:12:40;;;;;;;37.00;20.50;;;;;;;7.16;80.87;98571.07;219920;1256;126613;-69
2023/11/10 21:17:46;;;;;;;35.40;22.50;;;;;;;7.08;80.79;98569.30;219120;1256;141078;-68
2023/11/10 21:22:51;;;;;;;39.10;21.50;;;;;;;7.06;81.32;98565.88;218947;1258;140963;-70
2023/11/10 21:27:55;;;;;;;36.90;24.70;;;;;;;7.03;81.15;98561.75;220223;1257;140852;-71
2023/11/10 21:32:59;;;;;;;33.50;21.70;;;;;;;7.04;81.38;98556.52;220288;1255;141523;-69
2023/11/10 21:38:03;;;;;;;37.70;22.70;;;;;;;7.03;81.39;98552.32;220435;1257;141119;-68
2023/11/10 21:43:09;;;;;;;27.20;19.20;;;;;;;7.04;81.70;98548.89;220438;1256;140393;-72
2023/11/10 21:48:14;;;;;;;32.50;20.40;;;;;;;7.02;81.52;98544.31;218988;1259;140538;-74
2023/11/10 21:53:17;;;;;;;31.90;18.80;;;;;;;6.99;81.61;98537.00;219005;1256;139964;-70
2023/11/10 21:58:21;;;;;;;26.70;17.70;;;;;;;6.96;81.81;98532.24;219786;1256;139734;-68
2023/11/10 22:03:25;;;;;;;29.80;17.40;;;;;;;6.95;81.76;98531.16;219433;1256;140048;-67
2023/11/10 22:08:30;;;;;;;25.60;17.20;;;;;;;6.93;82.12;98526.05;219684;1257;140095;-68
2023/11/10 22:13:37;;;;;;;21.60;14.90;;;;;;;6.92;82.50;98520.20;220254;1256;140192;-68
2023/11/10 22:18:39;;;;;;;23.00;13.40;;;;;;;6.91;82.62;98515.90;220202;1256;140771;-69
2023/11/10 22:23:42;;;;;;;26.00;16.30;;;;;;;6.93;82.83;98515.13;220296;1255;140036;-68
2023/11/10 22:28:45;;;;;;;22.30;13.90;;;;;;;6.97;83.48;98512.86;220192;1257;141457;-69
2023/11/10 22:33:48;;;;;;;27.70;15.20;;;;;;;7.02;83.64;98516.76;220357;1259;140423;-69
2023/11/10 22:38:51;;;;;;;24.60;16.80;;;;;;;7.07;83.40;98519.25;220238;1256;140553;-69
2023/11/10 22:43:54;;;;;;;17.30;14.50;;;;;;;7.10;83.70;98511.88;220400;1256;142340;-68
2023/11/10 22:48:57;;;;;;;24.20;14.10;;;;;;;7.13;83.70;98511.03;220122;1256;140171;-69
2023/11/10 22:54:00;;;;;;;21.80;15.10;;;;;;;7.16;83.81;98511.98;220192;1257;139924;-69
2023/11/10 22:59:03;;;;;;;24.90;14.30;;;;;;;7.18;83.94;98504.31;220330;1256;140151;-68
2023/11/10 23:04:06;;;;;;;17.20;13.20;;;;;;;7.20;84.08;98501.55;220335;1256;140943;-69
2023/11/10 23:09:11;;;;;;;21.30;14.80;;;;;;;7.20;84.09;98500.39;220188;1256;140306;-69
2023/11/10 23:14:15;;;;;;;22.50;15.90;;;;;;;7.20;84.14;98496.30;220275;1256;140059;-70
2023/11/10 23:19:18;;;;;;;29.30;19.40;;;;;;;7.21;84.32;98496.37;220113;1257;140035;-71